createdAt,value
2023-04-15T00:00:46.784Z,18.70
2023-04-15T00:03:32.378Z,18.40
2023-04-15T00:06:17.915Z,16.67
2023-04-15T00:09:03.446Z,20.27
2023-04-15T00:11:50.111Z,17.50
2023-04-15T00:14:35.339Z,18.40
2023-04-15T00:17:20.601Z,16.60
2023-04-15T00:20:06.493Z,17.83
2023-04-15T00:22:51.695Z,19.23
2023-04-15T00:25:37.036Z,18.83
2023-04-15T00:28:21.938Z,19.90
2023-04-15T00:31:06.845Z,20.63
2023-04-15T00:33:52.163Z,18.17
2023-04-15T00:36:37.512Z,19.43
2023-04-15T00:39:23.029Z,16.67
2023-04-15T00:42:08.723Z,15.83
2023-04-15T00:44:53.863Z,19.80
2023-04-15T00:47:42.654Z,20.00
2023-04-15T00:50:27.697Z,20.47
2023-04-15T00:53:12.667Z,19.53
2023-04-15T00:55:57.971Z,21.37
2023-04-15T00:58:42.911Z,21.03
2023-04-15T01:01:28.283Z,17.90
2023-04-15T01:04:13.494Z,17.53
2023-04-15T01:06:58.678Z,19.93
2023-04-15T01:09:44.507Z,16.70
2023-04-15T01:12:31.969Z,19.77
2023-04-15T01:15:17.112Z,18.17
2023-04-15T01:18:02.912Z,18.07
2023-04-15T01:20:48.086Z,19.17
2023-04-15T01:23:35.784Z,20.73
2023-04-15T01:26:21.738Z,19.50
2023-04-15T01:29:06.741Z,21.10
2023-04-15T01:31:53.708Z,19.63
2023-04-15T01:34:38.707Z,20.57
2023-04-15T01:37:24.576Z,21.83
2023-04-15T01:40:10.117Z,19.47
2023-04-15T01:42:55.316Z,21.23
2023-04-15T01:45:40.823Z,18.87
2023-04-15T01:48:25.700Z,21.37
2023-04-15T01:51:11.183Z,18.73
2023-04-15T01:53:56.594Z,21.37
2023-04-15T01:56:42.052Z,19.33
2023-04-15T01:59:27.509Z,21.87
2023-04-15T02:02:12.365Z,22.33
2023-04-15T02:04:57.755Z,21.93
2023-04-15T02:07:43.105Z,22.13
2023-04-15T02:10:28.544Z,22.67
2023-04-15T02:13:13.914Z,24.10
2023-04-15T02:15:59.031Z,25.30
2023-04-15T02:18:45.366Z,23.90
2023-04-15T02:21:30.650Z,25.90
2023-04-15T02:24:15.755Z,23.97
2023-04-15T02:27:00.619Z,24.13
2023-04-15T02:29:45.999Z,28.20
2023-04-15T02:32:31.328Z,23.07
2023-04-15T02:35:16.782Z,23.80
2023-04-15T02:38:01.782Z,24.67
2023-04-15T02:40:47.203Z,28.13
2023-04-15T02:43:32.206Z,23.37
2023-04-15T02:46:17.661Z,23.23
2023-04-15T02:49:03.104Z,22.57
2023-04-15T02:51:48.483Z,22.27
2023-04-15T02:54:33.573Z,26.27
2023-04-15T02:57:18.498Z,26.57
2023-04-15T03:00:04.155Z,24.97
2023-04-15T03:02:49.453Z,26.50
2023-04-15T03:05:34.519Z,26.97
2023-04-15T03:08:20.113Z,26.27
2023-04-15T03:11:05.734Z,29.43
2023-04-15T03:13:50.810Z,27.73
2023-04-15T03:16:36.294Z,26.63
2023-04-15T03:19:21.790Z,25.87
2023-04-15T03:22:07.257Z,24.33
2023-04-15T03:24:52.212Z,25.40
2023-04-15T03:27:38.432Z,27.13
2023-04-15T03:30:23.989Z,26.50
2023-04-15T03:33:09.186Z,24.13
2023-04-15T03:35:54.713Z,21.93
2023-04-15T03:38:39.664Z,21.07
2023-04-15T03:41:25.127Z,23.33
2023-04-15T03:44:10.656Z,23.57
2023-04-15T03:46:56.176Z,21.17
2023-04-15T03:49:41.192Z,26.00
2023-04-15T03:52:26.762Z,24.83
2023-04-15T03:55:11.809Z,29.07
2023-04-15T03:57:56.910Z,29.07
2023-04-15T04:00:42.309Z,26.77
2023-04-15T04:03:27.777Z,23.77
2023-04-15T04:06:13.631Z,24.43
2023-04-15T04:08:58.718Z,27.07
2023-04-15T04:11:43.996Z,24.27
2023-04-15T04:14:29.313Z,25.17
2023-04-15T04:17:14.784Z,27.37
2023-04-15T04:20:00.201Z,27.57
2023-04-15T04:22:45.474Z,29.00
2023-04-15T04:25:30.315Z,26.83
2023-04-15T04:28:15.209Z,28.40
2023-04-15T04:31:00.657Z,31.60
2023-04-15T04:33:45.670Z,25.87
2023-04-15T04:36:30.528Z,27.03
2023-04-15T04:39:16.009Z,25.23
2023-04-15T04:42:01.446Z,24.10
2023-04-15T04:44:46.880Z,25.83
2023-04-15T04:47:31.943Z,24.47
2023-04-15T04:50:17.377Z,27.47
2023-04-15T04:53:02.662Z,27.87
2023-04-15T04:55:47.586Z,28.93
2023-04-15T04:58:32.367Z,27.37
2023-04-15T05:01:17.359Z,29.67
2023-04-15T05:04:02.620Z,28.23
2023-04-15T05:06:48.025Z,34.10
2023-04-15T05:09:33.108Z,30.93
2023-04-15T05:12:18.421Z,30.83
2023-04-15T05:15:04.345Z,35.27
2023-04-15T05:17:49.511Z,38.87
2023-04-15T05:20:34.714Z,38.53
2023-04-15T05:23:19.920Z,35.00
2023-04-15T05:26:05.388Z,39.30
2023-04-15T05:28:50.676Z,35.93
2023-04-15T05:31:36.641Z,35.07
2023-04-15T05:34:21.829Z,31.30
2023-04-15T05:37:07.121Z,34.13
2023-04-15T05:39:52.066Z,30.03
2023-04-15T05:42:37.645Z,28.57
2023-04-15T05:45:22.723Z,28.60
2023-04-15T05:48:07.934Z,30.90
2023-04-15T05:50:52.886Z,31.90
2023-04-15T05:53:38.084Z,31.97
2023-04-15T05:56:22.908Z,37.13
2023-04-15T05:59:08.365Z,35.83
2023-04-15T06:01:53.909Z,35.10
2023-04-15T06:04:39.213Z,30.73
2023-04-15T06:07:24.707Z,30.07
2023-04-15T06:10:10.147Z,31.73
2023-04-15T06:12:55.493Z,34.13
2023-04-15T06:15:40.243Z,34.23
2023-04-15T06:18:25.643Z,35.40
2023-04-15T06:21:10.610Z,32.10
2023-04-15T06:23:55.920Z,30.60
2023-04-15T06:26:41.346Z,32.87
2023-04-15T06:29:26.237Z,31.70
2023-04-15T06:32:11.677Z,33.00
2023-04-15T06:34:57.024Z,34.47
2023-04-15T06:37:42.333Z,31.07
2023-04-15T06:40:27.468Z,30.17
2023-04-15T06:43:12.694Z,32.50
2023-04-15T06:45:57.685Z,28.93
2023-04-15T06:48:43.014Z,31.30
2023-04-15T06:51:27.864Z,30.40
2023-04-15T06:54:13.323Z,32.03
2023-04-15T06:56:58.725Z,31.20
2023-04-15T06:59:43.741Z,33.53
2023-04-15T07:02:29.225Z,33.27
2023-04-15T07:05:14.581Z,34.30
2023-04-15T07:07:59.480Z,37.93
2023-04-15T07:10:44.337Z,34.70
2023-04-15T07:13:32.190Z,35.67
2023-04-15T07:16:17.648Z,33.67
2023-04-15T07:19:03.336Z,35.80
2023-04-15T07:21:49.593Z,38.53
2023-04-15T07:24:34.590Z,46.77
2023-04-15T07:27:19.571Z,66.90
2023-04-15T07:30:05.028Z,38.57
2023-04-15T07:32:49.976Z,34.67
2023-04-15T07:35:35.337Z,32.87
2023-04-15T07:38:20.305Z,31.87
2023-04-15T07:41:05.897Z,30.33
2023-04-15T07:43:50.960Z,30.50
2023-04-15T07:46:36.047Z,30.20
2023-04-15T07:49:21.162Z,28.77
2023-04-15T07:52:06.078Z,34.87
2023-04-15T07:54:51.489Z,32.30
2023-04-15T07:57:36.886Z,32.53
2023-04-15T08:00:22.591Z,35.33
2023-04-15T08:03:07.908Z,35.23
2023-04-15T08:05:53.173Z,37.87
2023-04-15T08:08:38.299Z,40.93
2023-04-15T08:11:23.613Z,40.50
2023-04-15T08:14:09.017Z,41.97
2023-04-15T08:16:54.034Z,39.43
2023-04-15T08:19:40.253Z,42.77
2023-04-15T08:22:25.344Z,40.23
2023-04-15T08:25:10.738Z,42.30
2023-04-15T08:27:56.439Z,39.57
2023-04-15T08:30:41.923Z,46.03
2023-04-15T08:33:27.358Z,39.27
2023-04-15T08:36:12.736Z,42.53
2023-04-15T08:38:58.302Z,42.27
2023-04-15T08:42:03.194Z,53.67
2023-04-15T08:44:49.428Z,41.92
2023-04-15T08:47:36.186Z,37.45
2023-04-15T08:50:22.753Z,37.47
2023-04-15T08:53:08.594Z,39.30
2023-04-15T08:55:57.195Z,34.33
2023-04-15T08:58:44.624Z,33.37
2023-04-15T09:01:29.801Z,36.80
2023-04-15T09:04:15.039Z,34.90
2023-04-15T09:07:00.477Z,33.23
2023-04-15T09:09:45.934Z,35.77
2023-04-15T09:12:33.813Z,34.53
2023-04-15T09:15:19.436Z,34.53
2023-04-15T09:18:05.868Z,33.07
2023-04-15T09:20:53.386Z,31.33
2023-04-15T09:23:40.077Z,27.90
2023-04-15T09:26:36.562Z,26.27
2023-04-15T09:29:25.199Z,26.90
2023-04-15T09:32:11.457Z,26.87
2023-04-15T09:34:56.640Z,27.17
2023-04-15T09:37:41.442Z,24.40
2023-04-15T09:40:34.927Z,22.83
2023-04-15T09:43:20.130Z,23.03
2023-04-15T09:46:05.682Z,21.60
2023-04-15T09:49:07.996Z,22.15
2023-04-15T09:52:05.146Z,20.00
2023-04-15T09:54:54.239Z,19.77
2023-04-15T09:57:40.099Z,20.48
2023-04-15T10:00:25.503Z,19.20
2023-04-15T10:03:11.469Z,18.37
2023-04-15T10:05:58.908Z,17.77
2023-04-15T10:08:44.333Z,18.52
2023-04-15T10:11:31.630Z,17.95
2023-04-15T10:14:18.746Z,18.00
2023-04-15T10:17:05.549Z,18.53
2023-04-15T10:19:54.228Z,16.90
2023-04-15T10:22:40.765Z,17.27
2023-04-15T10:25:27.035Z,17.63
2023-04-15T10:28:12.561Z,16.80
2023-04-15T10:30:58.912Z,16.60
2023-04-15T10:33:45.068Z,16.30
2023-04-15T10:36:30.389Z,17.80
2023-04-15T10:39:34.536Z,15.87
2023-04-15T10:42:19.969Z,20.40
2023-04-15T10:45:16.577Z,23.77
2023-04-15T10:48:04.012Z,15.17
2023-04-15T10:51:01.213Z,15.70
2023-04-15T10:53:46.427Z,15.98
2023-04-15T10:56:32.138Z,15.87
2023-04-15T10:59:17.028Z,17.03
2023-04-15T11:02:03.581Z,15.75
2023-04-15T11:04:55.961Z,18.00
2023-04-15T11:07:44.050Z,17.13
2023-04-15T11:10:29.566Z,18.43
2023-04-15T11:13:20.232Z,17.13
2023-04-15T11:16:05.571Z,15.37
2023-04-15T11:18:55.250Z,16.83
2023-04-15T11:21:40.575Z,17.03
2023-04-15T11:24:25.593Z,15.97
2023-04-15T11:27:10.675Z,17.33
2023-04-15T11:29:55.477Z,15.83
2023-04-15T11:32:43.922Z,16.50
2023-04-15T11:35:29.967Z,15.67
2023-04-15T11:38:15.961Z,17.07
2023-04-15T11:41:00.951Z,18.17
2023-04-15T11:43:46.335Z,16.50
2023-04-15T11:46:31.913Z,16.93
2023-04-15T11:49:28.850Z,16.40
2023-04-15T11:52:14.014Z,16.17
2023-04-15T11:55:03.984Z,18.10
2023-04-15T11:57:50.855Z,16.27
2023-04-15T12:00:36.986Z,16.00
2023-04-15T12:03:37.760Z,14.97
2023-04-15T12:06:32.615Z,14.30
2023-04-15T12:09:17.983Z,15.63
2023-04-15T12:12:03.257Z,15.70
2023-04-15T12:14:51.970Z,15.80
2023-04-15T12:17:51.764Z,32.40
2023-04-15T12:20:44.472Z,16.83
2023-04-15T12:23:29.631Z,15.67
2023-04-15T12:26:14.574Z,16.20
2023-04-15T12:29:06.294Z,17.27
2023-04-15T12:31:59.668Z,15.33
2023-04-15T12:34:50.754Z,15.07
2023-04-15T12:37:35.852Z,15.98
2023-04-15T12:40:21.268Z,16.47
2023-04-15T12:43:06.588Z,15.00
2023-04-15T12:45:51.927Z,14.70
2023-04-15T12:48:37.270Z,15.40
2023-04-15T12:51:22.595Z,16.90
2023-04-15T12:54:08.020Z,15.60
2023-04-15T12:56:53.618Z,15.23
2023-04-15T12:59:38.784Z,14.70
2023-04-15T13:02:24.231Z,15.03
2023-04-15T13:05:09.816Z,13.73
2023-04-15T13:07:55.118Z,13.60
2023-04-15T13:10:40.515Z,13.70
2023-04-15T13:13:26.435Z,15.77
2023-04-15T13:16:11.847Z,15.73
2023-04-15T13:18:57.676Z,14.02
2023-04-15T13:21:43.158Z,15.07
2023-04-15T13:24:28.502Z,14.02
2023-04-15T13:27:13.416Z,13.63
2023-04-15T13:29:58.272Z,15.75
2023-04-15T13:32:43.729Z,15.53
2023-04-15T13:35:29.138Z,13.65
2023-04-15T13:38:13.906Z,12.63
2023-04-15T13:40:59.323Z,12.70
2023-04-15T13:43:44.672Z,12.60
2023-04-15T13:46:30.204Z,12.13
2023-04-15T13:49:15.532Z,12.30
2023-04-15T13:52:00.872Z,13.23
2023-04-15T13:54:45.795Z,15.37
2023-04-15T13:57:31.386Z,11.85
2023-04-15T14:00:16.959Z,13.20
2023-04-15T14:03:02.146Z,13.13
2023-04-15T14:05:47.519Z,12.80
2023-04-15T14:08:32.467Z,23.38
2023-04-15T14:11:17.425Z,23.50
2023-04-15T14:14:02.663Z,13.27
2023-04-15T14:16:48.166Z,12.47
2023-04-15T14:19:35.077Z,15.37
2023-04-15T14:22:20.493Z,14.60
2023-04-15T14:25:06.474Z,14.33
2023-04-15T14:27:51.485Z,15.10
2023-04-15T14:30:36.900Z,17.60
2023-04-15T14:33:22.319Z,19.73
2023-04-15T14:36:10.372Z,18.77
2023-04-15T14:38:55.521Z,20.93
2023-04-15T14:41:40.459Z,19.33
2023-04-15T14:44:25.890Z,19.40
2023-04-15T14:47:11.285Z,19.77
2023-04-15T14:49:56.438Z,19.37
2023-04-15T14:52:41.894Z,22.40
2023-04-15T14:55:27.347Z,20.83
2023-04-15T14:58:12.691Z,24.33
2023-04-15T15:00:58.471Z,22.27
2023-04-15T15:03:43.688Z,24.80
2023-04-15T15:06:28.916Z,24.33
2023-04-15T15:09:14.189Z,23.33
2023-04-15T15:11:59.679Z,23.47
2023-04-15T15:14:45.191Z,24.30
2023-04-15T15:17:30.721Z,23.03
2023-04-15T15:20:17.005Z,26.03
2023-04-15T15:23:02.233Z,23.67
2023-04-15T15:25:47.632Z,26.57
2023-04-15T15:28:34.246Z,25.90
2023-04-15T15:31:19.721Z,24.17
2023-04-15T15:34:05.145Z,26.67
2023-04-15T15:36:50.581Z,26.10
2023-04-15T15:39:35.970Z,29.45
2023-04-15T15:42:22.458Z,27.02
2023-04-15T15:45:08.037Z,29.60
2023-04-15T15:47:53.285Z,25.93
2023-04-15T15:50:38.395Z,28.27
2023-04-15T15:53:23.736Z,25.23
2023-04-15T15:56:08.745Z,28.65
2023-04-15T15:58:53.564Z,25.00
2023-04-15T16:01:38.596Z,27.13
2023-04-15T16:04:23.901Z,24.87
2023-04-15T16:07:10.605Z,26.93
2023-04-15T16:09:55.853Z,31.83
2023-04-15T16:12:41.185Z,29.73
2023-04-15T16:15:26.170Z,28.07
2023-04-15T16:18:11.524Z,30.47
2023-04-15T16:20:56.456Z,28.70
2023-04-15T16:23:41.904Z,33.05
2023-04-15T16:26:27.302Z,29.33
2023-04-15T16:29:12.829Z,31.83
2023-04-15T16:31:58.220Z,31.98
2023-04-15T16:34:43.715Z,37.43
2023-04-15T16:37:29.164Z,31.20
2023-04-15T16:40:14.782Z,34.10
2023-04-15T16:43:00.391Z,34.50
2023-04-15T16:45:45.852Z,31.50
2023-04-15T16:48:31.245Z,32.63
2023-04-15T16:51:16.576Z,34.40
2023-04-15T16:54:02.007Z,32.07
2023-04-15T16:56:47.499Z,32.17
2023-04-15T16:59:32.970Z,33.08
2023-04-15T17:02:18.166Z,31.95
2023-04-15T17:05:03.816Z,30.77
2023-04-15T17:07:48.998Z,33.10
2023-04-15T17:10:34.365Z,31.80
2023-04-15T17:13:19.625Z,33.88
2023-04-15T17:16:04.993Z,34.38
2023-04-15T17:18:50.260Z,33.25
2023-04-15T17:21:35.808Z,33.33
2023-04-15T17:24:21.018Z,33.97
2023-04-15T17:27:06.466Z,31.15
2023-04-15T17:29:51.920Z,35.90
2023-04-15T17:32:38.606Z,36.85
2023-04-15T17:35:23.949Z,53.72
2023-04-15T17:38:09.436Z,37.35
2023-04-15T17:40:55.049Z,39.10
2023-04-15T17:43:40.264Z,35.80
2023-04-15T17:46:26.531Z,34.10
2023-04-15T17:49:11.931Z,36.95
2023-04-15T17:51:57.566Z,41.45
2023-04-15T17:54:42.871Z,36.28
2023-04-15T17:57:28.367Z,37.95
2023-04-15T18:00:14.058Z,36.03
2023-04-15T18:02:59.236Z,37.42
2023-04-15T18:05:44.681Z,42.33
2023-04-15T18:08:31.138Z,41.33
2023-04-15T18:11:16.546Z,42.57
2023-04-15T18:14:03.341Z,44.47
2023-04-15T18:16:49.075Z,41.57
2023-04-15T18:19:34.295Z,43.63
2023-04-15T18:22:19.440Z,45.28
2023-04-15T18:25:05.725Z,45.60
2023-04-15T18:27:50.938Z,44.33
2023-04-15T18:30:36.395Z,45.87
2023-04-15T18:33:21.677Z,47.78
2023-04-15T18:36:07.128Z,48.05
2023-04-15T18:38:52.501Z,48.13
2023-04-15T18:41:37.872Z,46.75
2023-04-15T18:44:23.464Z,48.17
2023-04-15T18:47:08.288Z,48.50
2023-04-15T18:49:53.903Z,49.15
2023-04-15T18:52:39.171Z,47.47
2023-04-15T18:55:24.314Z,50.05
2023-04-15T18:58:09.611Z,52.30
2023-04-15T19:00:54.859Z,51.00
2023-04-15T19:03:40.300Z,50.30
2023-04-15T19:06:25.653Z,57.13
2023-04-15T19:09:11.131Z,60.13
2023-04-15T19:11:56.669Z,61.13
2023-04-15T19:14:41.714Z,60.30
2023-04-15T19:17:27.319Z,65.43
2023-04-15T19:20:12.649Z,65.40
2023-04-15T19:22:57.936Z,67.93
2023-04-15T19:25:43.261Z,80.57
2023-04-15T19:28:30.018Z,79.70
2023-04-15T19:31:15.633Z,84.10
2023-04-15T19:34:00.928Z,73.77
2023-04-15T19:36:46.551Z,75.27
2023-04-15T19:39:31.868Z,72.23
2023-04-15T19:42:17.306Z,69.45
2023-04-15T19:45:03.153Z,64.97
2023-04-15T19:47:48.409Z,66.38
2023-04-15T19:50:33.823Z,67.40
2023-04-15T19:53:19.265Z,63.90
2023-04-15T19:56:04.628Z,72.32
2023-04-15T19:58:49.939Z,64.88
2023-04-15T20:01:35.321Z,70.27
2023-04-15T20:04:20.805Z,75.60
2023-04-15T20:07:05.890Z,65.60
2023-04-15T20:09:51.214Z,68.30
2023-04-15T20:12:50.695Z,69.73
2023-04-15T20:15:37.703Z,68.30
2023-04-15T20:18:23.022Z,64.20
2023-04-15T20:21:08.375Z,67.87
2023-04-15T20:23:53.707Z,66.83
2023-04-15T20:26:38.976Z,76.63
2023-04-15T20:29:24.492Z,80.90
2023-04-15T20:32:09.848Z,70.80
2023-04-15T20:34:55.177Z,76.37
2023-04-15T20:37:43.464Z,77.80
2023-04-15T20:40:28.559Z,74.53
2023-04-15T20:43:13.652Z,78.30
2023-04-15T20:46:04.401Z,77.93
2023-04-15T20:49:00.590Z,86.80
2023-04-15T20:51:46.025Z,96.40
2023-04-15T20:54:31.374Z,95.17
2023-04-15T20:57:16.842Z,92.77
2023-04-15T21:00:02.056Z,90.37
2023-04-15T21:02:47.355Z,90.07
2023-04-15T21:05:32.764Z,92.47
2023-04-15T21:08:18.135Z,112.97
2023-04-15T21:11:03.548Z,99.83
2023-04-15T21:13:49.139Z,96.50
2023-04-15T21:16:34.685Z,99.47
2023-04-15T21:19:20.053Z,94.27
2023-04-15T21:22:05.449Z,100.70
2023-04-15T21:24:50.525Z,93.00
2023-04-15T21:27:35.986Z,103.80
2023-04-15T21:30:21.506Z,104.03
2023-04-15T21:33:06.470Z,116.70
2023-04-15T21:35:55.400Z,101.93
2023-04-15T21:38:40.337Z,103.53
2023-04-15T21:41:26.162Z,102.87
2023-04-15T21:44:13.907Z,101.10
2023-04-15T21:46:59.765Z,101.10
2023-04-15T21:49:45.328Z,99.63
2023-04-15T21:52:30.647Z,100.80
2023-04-15T21:55:16.158Z,109.03
2023-04-15T21:58:01.520Z,111.27
2023-04-15T22:00:47.304Z,107.07
2023-04-15T22:03:34.409Z,106.87
2023-04-15T22:06:20.041Z,100.00
2023-04-15T22:09:05.416Z,92.67
2023-04-15T22:11:50.847Z,99.47
2023-04-15T22:14:36.299Z,102.17
2023-04-15T22:17:21.836Z,101.78
2023-04-15T22:20:07.929Z,104.55
2023-04-15T22:22:54.226Z,99.33
2023-04-15T22:25:40.530Z,101.13
2023-04-15T22:28:25.621Z,90.40
2023-04-15T22:31:10.704Z,99.43
2023-04-15T22:33:55.921Z,98.87
2023-04-15T22:36:41.453Z,93.93
2023-04-15T22:39:26.617Z,98.90
2023-04-15T22:42:12.180Z,95.07
2023-04-15T22:44:57.696Z,96.55
2023-04-15T22:47:43.164Z,91.50
2023-04-15T22:50:28.451Z,97.30
2023-04-15T22:53:15.461Z,89.30
2023-04-15T22:56:00.648Z,88.22
2023-04-15T22:58:46.177Z,93.63
2023-04-15T23:01:31.262Z,90.83
2023-04-15T23:04:26.390Z,90.40
2023-04-15T23:07:12.753Z,88.60
2023-04-15T23:09:58.175Z,87.17
2023-04-15T23:12:43.385Z,88.93
2023-04-15T23:15:28.273Z,92.43
2023-04-15T23:18:13.654Z,85.60
2023-04-15T23:20:58.947Z,86.50
2023-04-15T23:23:44.273Z,87.95
2023-04-15T23:26:29.591Z,87.60
2023-04-15T23:29:15.068Z,83.18
2023-04-15T23:32:00.603Z,82.37
2023-04-15T23:34:45.983Z,79.88
2023-04-15T23:37:31.401Z,88.95
2023-04-15T23:40:16.889Z,82.95
2023-04-15T23:43:01.730Z,83.60
2023-04-15T23:45:47.156Z,82.73
2023-04-15T23:48:32.475Z,82.07
2023-04-15T23:51:17.865Z,83.47
2023-04-15T23:54:02.869Z,84.43
2023-04-15T23:56:48.042Z,78.13
2023-04-15T23:59:33.298Z,79.80
